sensor_id;sensor_type;location;lat;lon;timestamp;P1;durP1;ratioP1;P2;durP2;ratioP2
78666;SDS011;67983;59.830;30.198;2023-05-21T00:00:33;11.00;;;6.00;;
78666;SDS011;67983;59.830;30.198;2023-05-21T00:03:01;11.07;;;6.15;;
78666;SDS011;67983;59.830;30.198;2023-05-21T00:05:28;9.63;;;6.60;;
78666;SDS011;67983;59.830;30.198;2023-05-21T00:07:57;9.95;;;6.55;;
78666;SDS011;67983;59.830;30.198;2023-05-21T00:10:24;10.55;;;5.88;;
78666;SDS011;67983;59.830;30.198;2023-05-21T00:12:51;10.13;;;6.55;;
78666;SDS011;67983;59.830;30.198;2023-05-21T00:15:21;11.35;;;6.93;;
78666;SDS011;67983;59.830;30.198;2023-05-21T00:17:47;11.88;;;6.63;;
78666;SDS011;67983;59.830;30.198;2023-05-21T00:20:16;11.98;;;6.63;;
78666;SDS011;67983;59.830;30.198;2023-05-21T00:22:44;8.75;;;6.07;;
78666;SDS011;67983;59.830;30.198;2023-05-21T00:25:12;9.93;;;6.35;;
78666;SDS011;67983;59.830;30.198;2023-05-21T00:27:39;11.23;;;7.63;;
78666;SDS011;67983;59.830;30.198;2023-05-21T00:30:08;9.88;;;5.88;;
78666;SDS011;67983;59.830;30.198;2023-05-21T00:32:35;10.60;;;6.80;;
78666;SDS011;67983;59.830;30.198;2023-05-21T00:35:03;9.18;;;6.47;;
78666;SDS011;67983;59.830;30.198;2023-05-21T00:37:32;11.15;;;5.43;;
78666;SDS011;67983;59.830;30.198;2023-05-21T00:40:00;9.73;;;6.88;;
78666;SDS011;67983;59.830;30.198;2023-05-21T00:42:30;10.50;;;6.22;;
78666;SDS011;67983;59.830;30.198;2023-05-21T00:44:58;13.45;;;5.78;;
78666;SDS011;67983;59.830;30.198;2023-05-21T00:47:25;11.85;;;5.50;;
78666;SDS011;67983;59.830;30.198;2023-05-21T00:49:56;11.63;;;7.35;;
78666;SDS011;67983;59.830;30.198;2023-05-21T00:52:24;8.82;;;6.13;;
78666;SDS011;67983;59.830;30.198;2023-05-21T00:54:53;12.07;;;5.85;;
78666;SDS011;67983;59.830;30.198;2023-05-21T00:57:24;9.77;;;5.35;;
78666;SDS011;67983;59.830;30.198;2023-05-21T00:59:53;10.15;;;5.72;;
78666;SDS011;67983;59.830;30.198;2023-05-21T01:02:20;11.73;;;4.82;;
78666;SDS011;67983;59.830;30.198;2023-05-21T01:04:48;8.45;;;5.40;;
78666;SDS011;67983;59.830;30.198;2023-05-21T01:07:16;11.07;;;5.85;;
78666;SDS011;67983;59.830;30.198;2023-05-21T01:09:45;9.40;;;5.70;;
78666;SDS011;67983;59.830;30.198;2023-05-21T01:12:15;8.07;;;4.97;;
78666;SDS011;67983;59.830;30.198;2023-05-21T01:14:43;9.88;;;5.75;;
78666;SDS011;67983;59.830;30.198;2023-05-21T01:17:11;8.18;;;4.32;;
78666;SDS011;67983;59.830;30.198;2023-05-21T01:19:40;7.70;;;4.50;;
78666;SDS011;67983;59.830;30.198;2023-05-21T01:22:09;7.40;;;4.43;;
78666;SDS011;67983;59.830;30.198;2023-05-21T01:24:40;5.13;;;3.60;;
78666;SDS011;67983;59.830;30.198;2023-05-21T01:27:16;8.43;;;4.70;;
78666;SDS011;67983;59.830;30.198;2023-05-21T01:29:44;9.63;;;4.93;;
78666;SDS011;67983;59.830;30.198;2023-05-21T01:32:13;7.10;;;4.60;;
78666;SDS011;67983;59.830;30.198;2023-05-21T01:34:48;9.88;;;5.25;;
78666;SDS011;67983;59.830;30.198;2023-05-21T01:37:22;8.45;;;5.28;;
78666;SDS011;67983;59.830;30.198;2023-05-21T01:39:59;8.15;;;4.38;;
78666;SDS011;67983;59.830;30.198;2023-05-21T01:42:32;10.23;;;4.88;;
78666;SDS011;67983;59.830;30.198;2023-05-21T01:45:01;6.90;;;4.35;;
78666;SDS011;67983;59.830;30.198;2023-05-21T01:47:31;8.43;;;4.43;;
78666;SDS011;67983;59.830;30.198;2023-05-21T01:50:05;5.90;;;3.80;;
78666;SDS011;67983;59.830;30.198;2023-05-21T01:52:33;6.95;;;4.07;;
78666;SDS011;67983;59.830;30.198;2023-05-21T01:55:04;7.53;;;4.60;;
78666;SDS011;67983;59.830;30.198;2023-05-21T01:57:35;6.85;;;3.80;;
78666;SDS011;67983;59.830;30.198;2023-05-21T02:00:02;8.05;;;3.85;;
78666;SDS011;67983;59.830;30.198;2023-05-21T02:02:40;6.18;;;3.88;;
78666;SDS011;67983;59.830;30.198;2023-05-21T02:05:07;6.88;;;3.80;;
78666;SDS011;67983;59.830;30.198;2023-05-21T02:07:38;5.45;;;3.72;;
78666;SDS011;67983;59.830;30.198;2023-05-21T02:10:08;6.28;;;3.92;;
78666;SDS011;67983;59.830;30.198;2023-05-21T02:12:36;10.10;;;4.00;;
78666;SDS011;67983;59.830;30.198;2023-05-21T02:15:03;6.10;;;3.53;;
78666;SDS011;67983;59.830;30.198;2023-05-21T02:17:31;6.95;;;3.95;;
78666;SDS011;67983;59.830;30.198;2023-05-21T02:19:59;7.35;;;4.05;;
78666;SDS011;67983;59.830;30.198;2023-05-21T02:22:36;6.85;;;3.58;;
78666;SDS011;67983;59.830;30.198;2023-05-21T02:25:04;4.93;;;3.25;;
78666;SDS011;67983;59.830;30.198;2023-05-21T02:27:34;6.60;;;3.40;;
78666;SDS011;67983;59.830;30.198;2023-05-21T02:30:03;5.75;;;3.17;;
78666;SDS011;67983;59.830;30.198;2023-05-21T02:32:31;8.00;;;3.80;;
78666;SDS011;67983;59.830;30.198;2023-05-21T02:34:59;5.85;;;3.35;;
78666;SDS011;67983;59.830;30.198;2023-05-21T02:37:28;4.38;;;2.85;;
78666;SDS011;67983;59.830;30.198;2023-05-21T02:39:58;5.00;;;3.20;;
78666;SDS011;67983;59.830;30.198;2023-05-21T02:42:27;8.38;;;3.58;;
78666;SDS011;67983;59.830;30.198;2023-05-21T02:44:57;8.40;;;4.28;;
78666;SDS011;67983;59.830;30.198;2023-05-21T02:47:25;6.50;;;3.78;;
78666;SDS011;67983;59.830;30.198;2023-05-21T02:49:53;8.88;;;3.85;;
78666;SDS011;67983;59.830;30.198;2023-05-21T02:52:22;5.22;;;3.20;;
78666;SDS011;67983;59.830;30.198;2023-05-21T02:54:50;6.97;;;3.38;;
78666;SDS011;67983;59.830;30.198;2023-05-21T02:57:17;8.15;;;3.75;;
78666;SDS011;67983;59.830;30.198;2023-05-21T02:59:44;4.72;;;3.17;;
78666;SDS011;67983;59.830;30.198;2023-05-21T03:02:13;3.05;;;2.47;;
78666;SDS011;67983;59.830;30.198;2023-05-21T03:04:40;5.22;;;3.38;;
78666;SDS011;67983;59.830;30.198;2023-05-21T03:07:11;5.28;;;3.10;;
78666;SDS011;67983;59.830;30.198;2023-05-21T03:09:39;6.32;;;3.22;;
78666;SDS011;67983;59.830;30.198;2023-05-21T03:12:08;5.45;;;3.17;;
78666;SDS011;67983;59.830;30.198;2023-05-21T03:14:35;5.85;;;2.92;;
78666;SDS011;67983;59.830;30.198;2023-05-21T03:17:04;4.65;;;2.67;;
78666;SDS011;67983;59.830;30.198;2023-05-21T03:19:34;5.65;;;2.95;;
78666;SDS011;67983;59.830;30.198;2023-05-21T03:22:06;6.28;;;2.88;;
78666;SDS011;67983;59.830;30.198;2023-05-21T03:24:35;6.68;;;3.25;;
78666;SDS011;67983;59.830;30.198;2023-05-21T03:27:03;4.95;;;2.85;;
78666;SDS011;67983;59.830;30.198;2023-05-21T03:29:32;3.90;;;2.63;;
78666;SDS011;67983;59.830;30.198;2023-05-21T03:32:01;6.70;;;2.78;;
78666;SDS011;67983;59.830;30.198;2023-05-21T03:34:30;4.13;;;2.85;;
78666;SDS011;67983;59.830;30.198;2023-05-21T03:37:01;3.42;;;2.50;;
78666;SDS011;67983;59.830;30.198;2023-05-21T03:39:28;5.15;;;3.35;;
78666;SDS011;67983;59.830;30.198;2023-05-21T03:41:57;4.47;;;3.10;;
78666;SDS011;67983;59.830;30.198;2023-05-21T03:44:40;4.25;;;2.85;;
78666;SDS011;67983;59.830;30.198;2023-05-21T03:47:26;4.72;;;3.20;;
78666;SDS011;67983;59.830;30.198;2023-05-21T03:49:59;6.25;;;2.90;;
78666;SDS011;67983;59.830;30.198;2023-05-21T03:52:31;4.22;;;2.72;;
78666;SDS011;67983;59.830;30.198;2023-05-21T03:54:58;3.53;;;2.30;;
78666;SDS011;67983;59.830;30.198;2023-05-21T03:57:25;5.32;;;3.20;;
78666;SDS011;67983;59.830;30.198;2023-05-21T03:59:52;3.17;;;2.47;;
78666;SDS011;67983;59.830;30.198;2023-05-21T04:02:20;7.25;;;2.78;;
78666;SDS011;67983;59.830;30.198;2023-05-21T04:04:46;4.60;;;3.40;;
78666;SDS011;67983;59.830;30.198;2023-05-21T04:07:17;4.28;;;2.60;;
78666;SDS011;67983;59.830;30.198;2023-05-21T04:09:48;3.63;;;2.53;;
78666;SDS011;67983;59.830;30.198;2023-05-21T04:12:15;4.97;;;2.78;;
78666;SDS011;67983;59.830;30.198;2023-05-21T04:14:44;5.82;;;3.15;;
78666;SDS011;67983;59.830;30.198;2023-05-21T04:17:11;6.13;;;3.05;;
78666;SDS011;67983;59.830;30.198;2023-05-21T04:19:38;6.03;;;2.35;;
78666;SDS011;67983;59.830;30.198;2023-05-21T04:22:08;4.57;;;2.67;;
78666;SDS011;67983;59.830;30.198;2023-05-21T04:24:37;4.20;;;2.70;;
78666;SDS011;67983;59.830;30.198;2023-05-21T04:27:19;4.65;;;2.70;;
78666;SDS011;67983;59.830;30.198;2023-05-21T04:29:50;6.05;;;3.55;;
78666;SDS011;67983;59.830;30.198;2023-05-21T04:32:20;6.72;;;3.38;;
78666;SDS011;67983;59.830;30.198;2023-05-21T04:34:47;6.10;;;3.85;;
78666;SDS011;67983;59.830;30.198;2023-05-21T04:37:14;5.47;;;3.50;;
78666;SDS011;67983;59.830;30.198;2023-05-21T04:39:42;5.55;;;3.38;;
78666;SDS011;67983;59.830;30.198;2023-05-21T04:42:09;6.65;;;3.90;;
78666;SDS011;67983;59.830;30.198;2023-05-21T04:44:38;4.70;;;3.13;;
78666;SDS011;67983;59.830;30.198;2023-05-21T04:47:05;6.05;;;3.25;;
78666;SDS011;67983;59.830;30.198;2023-05-21T04:49:36;5.97;;;3.75;;
78666;SDS011;67983;59.830;30.198;2023-05-21T04:52:04;6.30;;;4.32;;
78666;SDS011;67983;59.830;30.198;2023-05-21T04:54:33;5.53;;;4.45;;
78666;SDS011;67983;59.830;30.198;2023-05-21T04:57:00;6.38;;;3.28;;
78666;SDS011;67983;59.830;30.198;2023-05-21T04:59:28;5.25;;;3.13;;
78666;SDS011;67983;59.830;30.198;2023-05-21T05:01:57;6.35;;;3.45;;
78666;SDS011;67983;59.830;30.198;2023-05-21T05:04:24;6.85;;;4.05;;
78666;SDS011;67983;59.830;30.198;2023-05-21T05:06:51;8.77;;;4.03;;
78666;SDS011;67983;59.830;30.198;2023-05-21T05:09:18;4.53;;;3.40;;
78666;SDS011;67983;59.830;30.198;2023-05-21T05:14:15;5.95;;;4.18;;
78666;SDS011;67983;59.830;30.198;2023-05-21T05:16:44;6.75;;;3.90;;
78666;SDS011;67983;59.830;30.198;2023-05-21T05:19:15;4.82;;;3.08;;
78666;SDS011;67983;59.830;30.198;2023-05-21T05:21:42;4.35;;;3.45;;
78666;SDS011;67983;59.830;30.198;2023-05-21T05:24:11;6.25;;;3.63;;
78666;SDS011;67983;59.830;30.198;2023-05-21T05:26:38;7.35;;;3.38;;
78666;SDS011;67983;59.830;30.198;2023-05-21T05:29:05;3.88;;;3.03;;
78666;SDS011;67983;59.830;30.198;2023-05-21T05:31:35;7.32;;;3.90;;
78666;SDS011;67983;59.830;30.198;2023-05-21T05:34:03;5.95;;;3.60;;
78666;SDS011;67983;59.830;30.198;2023-05-21T05:36:32;4.00;;;3.28;;
78666;SDS011;67983;59.830;30.198;2023-05-21T05:39:01;7.22;;;2.55;;
78666;SDS011;67983;59.830;30.198;2023-05-21T05:41:28;5.63;;;3.17;;
78666;SDS011;67983;59.830;30.198;2023-05-21T05:43:56;4.28;;;2.47;;
78666;SDS011;67983;59.830;30.198;2023-05-21T05:46:31;5.22;;;2.85;;
78666;SDS011;67983;59.830;30.198;2023-05-21T05:48:59;7.82;;;3.03;;
78666;SDS011;67983;59.830;30.198;2023-05-21T05:51:26;5.63;;;2.80;;
78666;SDS011;67983;59.830;30.198;2023-05-21T05:53:56;5.78;;;2.97;;
78666;SDS011;67983;59.830;30.198;2023-05-21T05:56:23;6.68;;;3.67;;
78666;SDS011;67983;59.830;30.198;2023-05-21T05:58:51;5.43;;;3.20;;
78666;SDS011;67983;59.830;30.198;2023-05-21T06:01:20;7.38;;;4.03;;
78666;SDS011;67983;59.830;30.198;2023-05-21T06:03:49;5.28;;;3.20;;
78666;SDS011;67983;59.830;30.198;2023-05-21T06:06:17;4.78;;;2.80;;
78666;SDS011;67983;59.830;30.198;2023-05-21T06:08:45;6.13;;;2.50;;
78666;SDS011;67983;59.830;30.198;2023-05-21T06:11:14;5.45;;;2.67;;
78666;SDS011;67983;59.830;30.198;2023-05-21T06:13:43;5.82;;;2.67;;
78666;SDS011;67983;59.830;30.198;2023-05-21T06:16:11;5.30;;;2.65;;
78666;SDS011;67983;59.830;30.198;2023-05-21T06:18:39;4.25;;;2.70;;
78666;SDS011;67983;59.830;30.198;2023-05-21T06:21:06;6.55;;;3.83;;
78666;SDS011;67983;59.830;30.198;2023-05-21T06:23:34;3.85;;;2.95;;
78666;SDS011;67983;59.830;30.198;2023-05-21T06:26:02;3.97;;;2.38;;
78666;SDS011;67983;59.830;30.198;2023-05-21T06:28:32;5.05;;;2.92;;
78666;SDS011;67983;59.830;30.198;2023-05-21T06:31:01;5.45;;;2.92;;
78666;SDS011;67983;59.830;30.198;2023-05-21T06:33:30;6.50;;;3.35;;
78666;SDS011;67983;59.830;30.198;2023-05-21T06:35:57;7.78;;;2.80;;
78666;SDS011;67983;59.830;30.198;2023-05-21T06:38:24;7.82;;;3.08;;
78666;SDS011;67983;59.830;30.198;2023-05-21T06:40:51;4.80;;;3.08;;
78666;SDS011;67983;59.830;30.198;2023-05-21T06:43:37;7.63;;;2.55;;
78666;SDS011;67983;59.830;30.198;2023-05-21T06:46:41;4.90;;;2.50;;
78666;SDS011;67983;59.830;30.198;2023-05-21T06:49:10;4.93;;;2.60;;
78666;SDS011;67983;59.830;30.198;2023-05-21T06:51:38;4.68;;;2.10;;
78666;SDS011;67983;59.830;30.198;2023-05-21T06:54:07;2.90;;;2.20;;
78666;SDS011;67983;59.830;30.198;2023-05-21T06:56:36;5.65;;;2.50;;
78666;SDS011;67983;59.830;30.198;2023-05-21T06:59:05;4.18;;;2.13;;
78666;SDS011;67983;59.830;30.198;2023-05-21T07:01:33;4.10;;;2.63;;
78666;SDS011;67983;59.830;30.198;2023-05-21T07:04:02;3.47;;;2.03;;
78666;SDS011;67983;59.830;30.198;2023-05-21T07:06:30;3.60;;;1.90;;
78666;SDS011;67983;59.830;30.198;2023-05-21T07:08:58;4.55;;;2.25;;
78666;SDS011;67983;59.830;30.198;2023-05-21T07:11:26;4.78;;;2.50;;
78666;SDS011;67983;59.830;30.198;2023-05-21T07:13:56;4.15;;;2.70;;
78666;SDS011;67983;59.830;30.198;2023-05-21T07:16:28;5.00;;;2.65;;
78666;SDS011;67983;59.830;30.198;2023-05-21T07:18:56;4.60;;;2.53;;
78666;SDS011;67983;59.830;30.198;2023-05-21T07:21:23;6.18;;;2.70;;
78666;SDS011;67983;59.830;30.198;2023-05-21T07:23:51;4.60;;;2.88;;
78666;SDS011;67983;59.830;30.198;2023-05-21T07:26:22;6.70;;;2.88;;
78666;SDS011;67983;59.830;30.198;2023-05-21T07:28:51;7.93;;;3.97;;
78666;SDS011;67983;59.830;30.198;2023-05-21T07:31:19;7.07;;;3.40;;
78666;SDS011;67983;59.830;30.198;2023-05-21T07:33:50;7.22;;;3.72;;
78666;SDS011;67983;59.830;30.198;2023-05-21T07:36:21;5.80;;;3.65;;
78666;SDS011;67983;59.830;30.198;2023-05-21T07:38:55;7.93;;;3.60;;
78666;SDS011;67983;59.830;30.198;2023-05-21T07:41:23;7.13;;;3.88;;
78666;SDS011;67983;59.830;30.198;2023-05-21T07:43:51;6.05;;;3.13;;
78666;SDS011;67983;59.830;30.198;2023-05-21T07:46:19;7.90;;;3.08;;
78666;SDS011;67983;59.830;30.198;2023-05-21T07:48:50;8.95;;;4.20;;
78666;SDS011;67983;59.830;30.198;2023-05-21T07:51:21;5.00;;;3.25;;
78666;SDS011;67983;59.830;30.198;2023-05-21T07:53:49;6.50;;;3.80;;
78666;SDS011;67983;59.830;30.198;2023-05-21T07:56:20;4.45;;;3.33;;
78666;SDS011;67983;59.830;30.198;2023-05-21T07:58:47;7.00;;;3.60;;
78666;SDS011;67983;59.830;30.198;2023-05-21T08:01:14;13.18;;;4.38;;
78666;SDS011;67983;59.830;30.198;2023-05-21T08:03:46;6.78;;;2.90;;
78666;SDS011;67983;59.830;30.198;2023-05-21T08:06:16;8.88;;;3.72;;
78666;SDS011;67983;59.830;30.198;2023-05-21T08:08:43;8.38;;;3.03;;
78666;SDS011;67983;59.830;30.198;2023-05-21T08:11:10;5.13;;;3.50;;
78666;SDS011;67983;59.830;30.198;2023-05-21T08:13:37;9.02;;;2.80;;
78666;SDS011;67983;59.830;30.198;2023-05-21T08:16:07;4.72;;;2.60;;
78666;SDS011;67983;59.830;30.198;2023-05-21T08:18:38;3.28;;;2.08;;
78666;SDS011;67983;59.830;30.198;2023-05-21T08:21:06;5.03;;;2.55;;
78666;SDS011;67983;59.830;30.198;2023-05-21T08:23:35;4.32;;;2.38;;
78666;SDS011;67983;59.830;30.198;2023-05-21T08:26:04;3.75;;;2.35;;
78666;SDS011;67983;59.830;30.198;2023-05-21T08:28:36;5.72;;;2.30;;
78666;SDS011;67983;59.830;30.198;2023-05-21T08:31:07;4.80;;;2.75;;
78666;SDS011;67983;59.830;30.198;2023-05-21T08:33:35;7.47;;;2.42;;
78666;SDS011;67983;59.830;30.198;2023-05-21T08:36:04;5.97;;;2.88;;
78666;SDS011;67983;59.830;30.198;2023-05-21T08:38:39;4.30;;;2.85;;
78666;SDS011;67983;59.830;30.198;2023-05-21T08:41:23;6.35;;;3.30;;
78666;SDS011;67983;59.830;30.198;2023-05-21T08:43:53;5.53;;;2.60;;
78666;SDS011;67983;59.830;30.198;2023-05-21T08:46:22;5.47;;;3.35;;
78666;SDS011;67983;59.830;30.198;2023-05-21T08:48:53;4.53;;;2.47;;
78666;SDS011;67983;59.830;30.198;2023-05-21T08:51:22;5.78;;;2.33;;
78666;SDS011;67983;59.830;30.198;2023-05-21T08:53:52;6.05;;;2.55;;
78666;SDS011;67983;59.830;30.198;2023-05-21T08:56:26;5.50;;;2.38;;
78666;SDS011;67983;59.830;30.198;2023-05-21T08:58:56;7.82;;;2.88;;
78666;SDS011;67983;59.830;30.198;2023-05-21T09:01:27;5.88;;;2.83;;
78666;SDS011;67983;59.830;30.198;2023-05-21T09:04:04;3.95;;;2.45;;
78666;SDS011;67983;59.830;30.198;2023-05-21T09:06:32;5.43;;;2.53;;
78666;SDS011;67983;59.830;30.198;2023-05-21T09:09:05;4.70;;;2.60;;
78666;SDS011;67983;59.830;30.198;2023-05-21T09:11:45;5.65;;;2.28;;
78666;SDS011;67983;59.830;30.198;2023-05-21T09:14:14;3.72;;;2.40;;
78666;SDS011;67983;59.830;30.198;2023-05-21T09:16:57;10.00;;;3.00;;
78666;SDS011;67983;59.830;30.198;2023-05-21T09:19:26;3.72;;;2.53;;
78666;SDS011;67983;59.830;30.198;2023-05-21T09:21:56;6.85;;;2.58;;
78666;SDS011;67983;59.830;30.198;2023-05-21T09:24:31;3.53;;;2.35;;
78666;SDS011;67983;59.830;30.198;2023-05-21T09:26:59;3.38;;;2.00;;
78666;SDS011;67983;59.830;30.198;2023-05-21T09:29:26;4.18;;;2.35;;
78666;SDS011;67983;59.830;30.198;2023-05-21T09:31:55;5.75;;;2.20;;
78666;SDS011;67983;59.830;30.198;2023-05-21T09:34:25;3.83;;;2.08;;
78666;SDS011;67983;59.830;30.198;2023-05-21T09:36:55;4.60;;;1.83;;
78666;SDS011;67983;59.830;30.198;2023-05-21T09:39:28;8.82;;;2.33;;
78666;SDS011;67983;59.830;30.198;2023-05-21T09:42:01;4.80;;;2.50;;
78666;SDS011;67983;59.830;30.198;2023-05-21T09:44:33;3.65;;;2.30;;
78666;SDS011;67983;59.830;30.198;2023-05-21T09:47:01;4.80;;;2.47;;
78666;SDS011;67983;59.830;30.198;2023-05-21T09:49:29;7.25;;;2.30;;
78666;SDS011;67983;59.830;30.198;2023-05-21T09:51:58;3.63;;;2.50;;
78666;SDS011;67983;59.830;30.198;2023-05-21T09:54:29;6.35;;;2.25;;
78666;SDS011;67983;59.830;30.198;2023-05-21T09:56:59;4.18;;;2.33;;
78666;SDS011;67983;59.830;30.198;2023-05-21T09:59:34;4.13;;;2.60;;
78666;SDS011;67983;59.830;30.198;2023-05-21T10:02:02;4.07;;;2.40;;
78666;SDS011;67983;59.830;30.198;2023-05-21T10:04:30;4.63;;;2.65;;
78666;SDS011;67983;59.830;30.198;2023-05-21T10:06:58;3.45;;;2.47;;
78666;SDS011;67983;59.830;30.198;2023-05-21T10:09:34;4.80;;;2.90;;
78666;SDS011;67983;59.830;30.198;2023-05-21T10:12:03;5.03;;;2.72;;
78666;SDS011;67983;59.830;30.198;2023-05-21T10:14:32;4.85;;;3.15;;
78666;SDS011;67983;59.830;30.198;2023-05-21T10:17:01;5.93;;;3.08;;
78666;SDS011;67983;59.830;30.198;2023-05-21T10:19:28;4.25;;;2.30;;
78666;SDS011;67983;59.830;30.198;2023-05-21T10:21:58;6.38;;;3.13;;
78666;SDS011;67983;59.830;30.198;2023-05-21T10:24:28;4.70;;;2.63;;
78666;SDS011;67983;59.830;30.198;2023-05-21T10:26:56;5.43;;;2.58;;
78666;SDS011;67983;59.830;30.198;2023-05-21T10:29:25;2.85;;;2.47;;
78666;SDS011;67983;59.830;30.198;2023-05-21T10:31:53;3.03;;;2.60;;
78666;SDS011;67983;59.830;30.198;2023-05-21T10:34:21;2.13;;;1.88;;
78666;SDS011;67983;59.830;30.198;2023-05-21T10:36:49;4.72;;;2.75;;
78666;SDS011;67983;59.830;30.198;2023-05-21T10:39:18;2.72;;;2.28;;
78666;SDS011;67983;59.830;30.198;2023-05-21T10:41:48;4.55;;;2.60;;
78666;SDS011;67983;59.830;30.198;2023-05-21T10:44:37;4.72;;;3.65;;
78666;SDS011;67983;59.830;30.198;2023-05-21T10:47:19;6.15;;;2.53;;
78666;SDS011;67983;59.830;30.198;2023-05-21T10:50:12;3.78;;;2.33;;
78666;SDS011;67983;59.830;30.198;2023-05-21T10:52:56;3.83;;;2.88;;
78666;SDS011;67983;59.830;30.198;2023-05-21T10:55:42;4.38;;;2.42;;
78666;SDS011;67983;59.830;30.198;2023-05-21T10:58:28;3.20;;;2.13;;
78666;SDS011;67983;59.830;30.198;2023-05-21T11:01:12;2.47;;;2.15;;
78666;SDS011;67983;59.830;30.198;2023-05-21T11:03:43;2.30;;;2.03;;
78666;SDS011;67983;59.830;30.198;2023-05-21T11:06:21;2.92;;;2.40;;
78666;SDS011;67983;59.830;30.198;2023-05-21T11:08:52;2.30;;;1.98;;
78666;SDS011;67983;59.830;30.198;2023-05-21T11:14:27;2.83;;;2.30;;
78666;SDS011;67983;59.830;30.198;2023-05-21T11:17:02;2.40;;;2.08;;
78666;SDS011;67983;59.830;30.198;2023-05-21T11:19:33;4.30;;;2.10;;
78666;SDS011;67983;59.830;30.198;2023-05-21T11:22:19;3.25;;;2.30;;
78666;SDS011;67983;59.830;30.198;2023-05-21T11:24:48;3.90;;;2.50;;
78666;SDS011;67983;59.830;30.198;2023-05-21T11:27:29;9.23;;;2.85;;
78666;SDS011;67983;59.830;30.198;2023-05-21T11:29:58;2.78;;;2.33;;
78666;SDS011;67983;59.830;30.198;2023-05-21T11:32:32;2.92;;;2.13;;
78666;SDS011;67983;59.830;30.198;2023-05-21T11:35:04;5.90;;;2.47;;
78666;SDS011;67983;59.830;30.198;2023-05-21T11:37:32;3.78;;;2.25;;
78666;SDS011;67983;59.830;30.198;2023-05-21T11:40:16;5.25;;;2.78;;
78666;SDS011;67983;59.830;30.198;2023-05-21T11:42:49;3.00;;;2.35;;
78666;SDS011;67983;59.830;30.198;2023-05-21T11:45:17;3.58;;;2.50;;
78666;SDS011;67983;59.830;30.198;2023-05-21T11:47:50;5.20;;;2.85;;
78666;SDS011;67983;59.830;30.198;2023-05-21T11:50:18;4.28;;;2.38;;
78666;SDS011;67983;59.830;30.198;2023-05-21T11:52:48;4.60;;;2.75;;
78666;SDS011;67983;59.830;30.198;2023-05-21T11:55:20;6.65;;;2.72;;
78666;SDS011;67983;59.830;30.198;2023-05-21T11:57:51;2.83;;;2.40;;
78666;SDS011;67983;59.830;30.198;2023-05-21T12:00:19;3.30;;;2.70;;
78666;SDS011;67983;59.830;30.198;2023-05-21T12:02:49;4.30;;;2.63;;
78666;SDS011;67983;59.830;30.198;2023-05-21T12:05:20;2.95;;;2.50;;
78666;SDS011;67983;59.830;30.198;2023-05-21T12:07:48;3.40;;;2.50;;
78666;SDS011;67983;59.830;30.198;2023-05-21T12:10:15;5.40;;;2.92;;
78666;SDS011;67983;59.830;30.198;2023-05-21T12:12:42;3.65;;;2.58;;
78666;SDS011;67983;59.830;30.198;2023-05-21T12:15:09;5.70;;;3.30;;
78666;SDS011;67983;59.830;30.198;2023-05-21T12:17:40;2.53;;;2.30;;
78666;SDS011;67983;59.830;30.198;2023-05-21T12:20:11;3.50;;;2.40;;
78666;SDS011;67983;59.830;30.198;2023-05-21T12:22:41;3.28;;;1.90;;
78666;SDS011;67983;59.830;30.198;2023-05-21T12:25:08;3.60;;;2.42;;
78666;SDS011;67983;59.830;30.198;2023-05-21T12:27:37;6.53;;;3.08;;
78666;SDS011;67983;59.830;30.198;2023-05-21T12:30:06;4.65;;;2.75;;
78666;SDS011;67983;59.830;30.198;2023-05-21T12:32:34;4.93;;;2.50;;
78666;SDS011;67983;59.830;30.198;2023-05-21T12:35:02;4.15;;;2.40;;
78666;SDS011;67983;59.830;30.198;2023-05-21T12:37:31;2.35;;;2.00;;
78666;SDS011;67983;59.830;30.198;2023-05-21T12:40:01;4.38;;;2.65;;
78666;SDS011;67983;59.830;30.198;2023-05-21T12:42:33;3.10;;;2.42;;
78666;SDS011;67983;59.830;30.198;2023-05-21T12:45:04;5.68;;;2.80;;
78666;SDS011;67983;59.830;30.198;2023-05-21T12:47:32;2.83;;;2.08;;
78666;SDS011;67983;59.830;30.198;2023-05-21T12:49:59;6.85;;;4.40;;
78666;SDS011;67983;59.830;30.198;2023-05-21T12:52:28;3.15;;;2.28;;
78666;SDS011;67983;59.830;30.198;2023-05-21T12:54:59;3.85;;;1.88;;
78666;SDS011;67983;59.830;30.198;2023-05-21T12:57:34;3.40;;;1.73;;
78666;SDS011;67983;59.830;30.198;2023-05-21T13:00:08;6.88;;;2.42;;
78666;SDS011;67983;59.830;30.198;2023-05-21T13:02:37;9.73;;;2.17;;
78666;SDS011;67983;59.830;30.198;2023-05-21T13:05:06;4.38;;;2.33;;
78666;SDS011;67983;59.830;30.198;2023-05-21T13:07:35;2.10;;;1.77;;
78666;SDS011;67983;59.830;30.198;2023-05-21T13:10:05;4.80;;;1.70;;
78666;SDS011;67983;59.830;30.198;2023-05-21T13:12:33;2.55;;;2.08;;
78666;SDS011;67983;59.830;30.198;2023-05-21T13:15:07;2.75;;;1.90;;
78666;SDS011;67983;59.830;30.198;2023-05-21T13:17:38;2.17;;;1.80;;
78666;SDS011;67983;59.830;30.198;2023-05-21T13:20:05;3.50;;;2.15;;
78666;SDS011;67983;59.830;30.198;2023-05-21T13:22:38;2.67;;;1.60;;
78666;SDS011;67983;59.830;30.198;2023-05-21T13:27:41;2.30;;;1.60;;
78666;SDS011;67983;59.830;30.198;2023-05-21T13:30:09;4.63;;;1.80;;
78666;SDS011;67983;59.830;30.198;2023-05-21T13:32:37;2.10;;;1.70;;
78666;SDS011;67983;59.830;30.198;2023-05-21T13:35:04;3.78;;;1.70;;
78666;SDS011;67983;59.830;30.198;2023-05-21T13:37:32;3.20;;;1.92;;
78666;SDS011;67983;59.830;30.198;2023-05-21T13:40:01;5.22;;;2.05;;
78666;SDS011;67983;59.830;30.198;2023-05-21T13:42:33;2.92;;;1.80;;
78666;SDS011;67983;59.830;30.198;2023-05-21T13:45:03;3.05;;;2.20;;
78666;SDS011;67983;59.830;30.198;2023-05-21T13:47:31;3.42;;;1.70;;
78666;SDS011;67983;59.830;30.198;2023-05-21T13:50:00;2.83;;;1.83;;
78666;SDS011;67983;59.830;30.198;2023-05-21T13:52:28;3.33;;;1.65;;
78666;SDS011;67983;59.830;30.198;2023-05-21T13:54:55;1.80;;;1.35;;
78666;SDS011;67983;59.830;30.198;2023-05-21T13:57:25;3.88;;;1.95;;
78666;SDS011;67983;59.830;30.198;2023-05-21T13:59:56;4.50;;;2.50;;
78666;SDS011;67983;59.830;30.198;2023-05-21T14:02:23;2.22;;;1.63;;
78666;SDS011;67983;59.830;30.198;2023-05-21T14:04:51;4.93;;;2.30;;
78666;SDS011;67983;59.830;30.198;2023-05-21T14:07:18;4.60;;;2.15;;
78666;SDS011;67983;59.830;30.198;2023-05-21T14:09:48;3.10;;;2.15;;
78666;SDS011;67983;59.830;30.198;2023-05-21T14:12:15;3.00;;;1.90;;
78666;SDS011;67983;59.830;30.198;2023-05-21T14:14:43;2.72;;;1.83;;
78666;SDS011;67983;59.830;30.198;2023-05-21T14:17:11;2.30;;;1.80;;
78666;SDS011;67983;59.830;30.198;2023-05-21T14:19:38;3.72;;;2.15;;
78666;SDS011;67983;59.830;30.198;2023-05-21T14:22:06;3.33;;;2.15;;
78666;SDS011;67983;59.830;30.198;2023-05-21T14:24:37;3.22;;;1.90;;
78666;SDS011;67983;59.830;30.198;2023-05-21T14:27:09;4.95;;;1.90;;
78666;SDS011;67983;59.830;30.198;2023-05-21T14:29:36;3.42;;;1.85;;
78666;SDS011;67983;59.830;30.198;2023-05-21T14:32:03;3.03;;;1.80;;
78666;SDS011;67983;59.830;30.198;2023-05-21T14:34:32;3.30;;;2.03;;
78666;SDS011;67983;59.830;30.198;2023-05-21T14:37:00;2.90;;;2.13;;
78666;SDS011;67983;59.830;30.198;2023-05-21T14:39:27;2.92;;;1.73;;
78666;SDS011;67983;59.830;30.198;2023-05-21T14:41:56;5.20;;;2.13;;
78666;SDS011;67983;59.830;30.198;2023-05-21T14:44:25;7.13;;;2.17;;
78666;SDS011;67983;59.830;30.198;2023-05-21T14:46:52;4.88;;;1.92;;
78666;SDS011;67983;59.830;30.198;2023-05-21T14:49:22;4.35;;;2.38;;
78666;SDS011;67983;59.830;30.198;2023-05-21T14:51:50;2.30;;;1.90;;
78666;SDS011;67983;59.830;30.198;2023-05-21T14:54:17;3.55;;;2.13;;
78666;SDS011;67983;59.830;30.198;2023-05-21T14:56:45;2.25;;;2.03;;